createdAt,value
2016-11-26T00:02:22.650Z,0
2016-11-26T00:03:04.407Z,0
2016-11-26T00:03:46.134Z,0
2016-11-26T00:04:27.651Z,0
2016-11-26T00:05:09.259Z,0
2016-11-26T00:07:45.680Z,0
2016-11-26T00:08:27.293Z,0
2016-11-26T00:09:09.104Z,0
2016-11-26T00:11:45.479Z,0
2016-11-26T00:14:16.673Z,0
2016-11-26T00:14:58.422Z,0
2016-11-26T00:15:40.124Z,0
2016-11-26T00:16:21.839Z,0
2016-11-26T00:17:03.567Z,0
2016-11-26T00:17:45.282Z,0
2016-11-26T00:18:27.042Z,0
2016-11-26T00:19:08.733Z,0
2016-11-26T00:19:50.372Z,0
2016-11-26T00:20:32.057Z,0
2016-11-26T00:21:13.709Z,0
2016-11-26T00:21:55.425Z,0
2016-11-26T00:22:37.150Z,0
2016-11-26T00:23:18.873Z,0
2016-11-26T00:24:00.569Z,0
2016-11-26T00:24:42.245Z,0
2016-11-26T00:27:18.476Z,0
2016-11-26T00:28:00.211Z,0
2016-11-26T00:28:41.922Z,0
2016-11-26T00:29:23.590Z,0
2016-11-26T00:31:39.028Z,0
2016-11-26T00:34:20.783Z,0
2016-11-26T00:35:02.589Z,0
2016-11-26T00:35:44.205Z,0
2016-11-26T00:36:25.954Z,0
2016-11-26T00:44:25.302Z,0
2016-11-26T00:45:06.959Z,0
2016-11-26T00:45:48.679Z,0
2016-11-26T00:48:24.954Z,0
2016-11-26T00:50:40.362Z,0
2016-11-26T00:53:16.527Z,0
2016-11-26T00:53:58.162Z,0
2016-11-26T00:56:34.477Z,0
2016-11-26T00:59:10.573Z,0
2016-11-26T00:59:52.120Z,0
2016-11-26T01:00:33.766Z,0
2016-11-26T01:01:15.413Z,0
2016-11-26T01:01:56.881Z,0
2016-11-26T01:04:38.422Z,0
2016-11-26T01:05:20.248Z,0
2016-11-26T01:06:01.995Z,0
2016-11-26T01:06:43.780Z,0
2016-11-26T01:09:25.162Z,0
2016-11-26T01:12:01.743Z,0
2016-11-26T01:12:43.335Z,0
2016-11-26T01:13:24.865Z,0
2016-11-26T01:14:06.554Z,0
2016-11-26T01:14:48.190Z,0
2016-11-26T01:15:29.895Z,0
2016-11-26T01:17:45.344Z,0
2016-11-26T01:20:06.052Z,0
2016-11-26T01:20:47.741Z,0
2016-11-26T01:21:29.441Z,0
2016-11-26T01:22:11.094Z,0
2016-11-26T01:22:52.853Z,0
2016-11-26T01:23:34.505Z,0
2016-11-26T01:24:16.252Z,0
2016-11-26T01:24:58.006Z,0
2016-11-26T01:25:39.693Z,0
2016-11-26T01:26:21.261Z,0
2016-11-26T01:28:57.679Z,0
2016-11-26T01:29:39.435Z,0
2016-11-26T01:30:21.147Z,0
2016-11-26T01:31:02.860Z,0
2016-11-26T01:31:44.533Z,0
2016-11-26T01:32:26.216Z,0
2016-11-26T01:33:07.881Z,0
2016-11-26T01:33:49.645Z,0
2016-11-26T01:34:31.310Z,0
2016-11-26T01:35:12.901Z,0
2016-11-26T01:35:54.591Z,0
2016-11-26T01:38:10.068Z,0
2016-11-26T01:38:51.747Z,0
2016-11-26T01:41:33.409Z,0
2016-11-26T01:42:15.001Z,0
2016-11-26T01:42:56.640Z,0
2016-11-26T01:45:33.043Z,0
2016-11-26T01:48:04.107Z,0
2016-11-26T01:48:45.776Z,0
2016-11-26T01:49:27.421Z,0
2016-11-26T01:50:08.914Z,0
2016-11-26T01:52:23.584Z,0
2016-11-26T01:53:04.645Z,0
2016-11-26T01:53:45.651Z,0
2016-11-26T01:56:21.696Z,0
2016-11-26T01:58:42.343Z,0
2016-11-26T01:59:24.094Z,0
2016-11-26T02:00:05.631Z,0
2016-11-26T02:02:19.856Z,0
2016-11-26T02:03:00.393Z,0
2016-11-26T02:03:40.978Z,0
2016-11-26T02:04:21.585Z,0
2016-11-26T02:05:02.132Z,0
2016-11-26T02:05:42.675Z,0
2016-11-26T02:06:23.205Z,0
2016-11-26T02:07:03.738Z,0
2016-11-26T02:07:44.273Z,0
2016-11-26T02:08:24.811Z,0
2016-11-26T02:09:05.345Z,0
2016-11-26T02:09:45.888Z,0
2016-11-26T02:10:26.429Z,0
2016-11-26T02:11:06.967Z,0
2016-11-26T02:11:47.503Z,0
2016-11-26T02:12:28.041Z,0
2016-11-26T02:13:08.576Z,0
2016-11-26T02:13:49.110Z,0
2016-11-26T02:14:29.651Z,0
2016-11-26T02:15:10.193Z,0
2016-11-26T02:15:50.735Z,0
2016-11-26T02:16:31.313Z,0
2016-11-26T02:17:11.858Z,0
2016-11-26T02:17:52.393Z,0
2016-11-26T02:18:32.944Z,0
2016-11-26T02:19:13.485Z,0
2016-11-26T02:19:54.027Z,0
2016-11-26T02:20:34.569Z,0
2016-11-26T02:21:15.106Z,0
2016-11-26T02:21:55.642Z,0
2016-11-26T02:22:36.184Z,0
2016-11-26T02:23:16.725Z,0
2016-11-26T02:23:57.264Z,0
2016-11-26T02:24:37.803Z,0
2016-11-26T02:25:18.340Z,0
2016-11-26T02:25:58.893Z,0
2016-11-26T02:26:39.411Z,0
2016-11-26T02:27:19.949Z,0
2016-11-26T02:28:00.482Z,0
2016-11-26T02:28:41.017Z,0
2016-11-26T02:29:21.557Z,0
2016-11-26T02:30:02.098Z,0
2016-11-26T02:30:42.642Z,0
2016-11-26T02:31:23.176Z,0
2016-11-26T02:32:03.708Z,0
2016-11-26T02:32:44.243Z,0
2016-11-26T02:33:24.785Z,0
2016-11-26T02:34:05.315Z,0
2016-11-26T02:34:45.859Z,0
2016-11-26T02:35:26.397Z,0
2016-11-26T02:36:06.939Z,0
2016-11-26T02:36:47.473Z,0
2016-11-26T02:37:28.010Z,0
2016-11-26T02:38:08.549Z,0
2016-11-26T02:38:49.088Z,0
2016-11-26T02:39:29.630Z,0
2016-11-26T02:40:10.166Z,0
2016-11-26T02:40:50.706Z,0
2016-11-26T02:41:31.244Z,0
2016-11-26T02:42:11.778Z,0
2016-11-26T02:42:52.312Z,0
2016-11-26T02:43:32.854Z,0
2016-11-26T02:44:13.394Z,0
2016-11-26T02:44:53.934Z,0
2016-11-26T02:45:34.475Z,0
2016-11-26T02:46:15.007Z,0
2016-11-26T02:46:55.562Z,0
2016-11-26T02:47:36.103Z,0
2016-11-26T02:48:16.642Z,0
2016-11-26T02:48:57.179Z,0
2016-11-26T02:49:37.711Z,0
2016-11-26T02:50:18.315Z,0
2016-11-26T02:50:58.853Z,0
2016-11-26T02:51:39.393Z,0
2016-11-26T02:52:19.926Z,0
2016-11-26T02:53:00.465Z,0
2016-11-26T02:53:41.003Z,0
2016-11-26T02:54:21.541Z,0
2016-11-26T02:55:02.079Z,0
2016-11-26T02:55:42.619Z,0
2016-11-26T02:56:23.158Z,0
2016-11-26T02:57:03.693Z,0
2016-11-26T02:57:44.229Z,0
2016-11-26T02:58:24.773Z,0
2016-11-26T02:59:05.306Z,0
2016-11-26T02:59:45.847Z,0
2016-11-26T03:00:26.380Z,0
2016-11-26T03:01:06.919Z,0
2016-11-26T03:01:47.495Z,0
2016-11-26T03:02:27.997Z,0
2016-11-26T03:03:08.535Z,0
2016-11-26T03:03:49.071Z,0
2016-11-26T03:04:29.612Z,0
2016-11-26T03:05:10.151Z,0
2016-11-26T03:05:50.687Z,0
2016-11-26T03:06:31.229Z,0
2016-11-26T03:07:11.767Z,0
2016-11-26T03:07:52.304Z,0
2016-11-26T03:08:32.839Z,0
2016-11-26T03:09:13.376Z,0
2016-11-26T03:09:53.910Z,0
2016-11-26T03:10:34.443Z,0
2016-11-26T03:11:14.991Z,0
2016-11-26T03:11:55.525Z,0
2016-11-26T03:12:36.071Z,0
2016-11-26T03:13:16.601Z,0
2016-11-26T03:13:57.140Z,0
2016-11-26T03:14:37.680Z,0
2016-11-26T03:15:18.219Z,0
2016-11-26T03:15:58.759Z,0
2016-11-26T03:16:39.297Z,0
2016-11-26T03:17:19.838Z,0
2016-11-26T03:18:00.376Z,0
2016-11-26T03:18:40.918Z,0
2016-11-26T03:19:21.457Z,0
2016-11-26T03:20:01.995Z,0
2016-11-26T03:20:42.536Z,0
2016-11-26T03:21:23.073Z,0
2016-11-26T03:22:03.606Z,0
2016-11-26T03:22:44.153Z,0
2016-11-26T03:23:24.693Z,0
2016-11-26T03:24:05.232Z,0
2016-11-26T03:24:45.773Z,0
2016-11-26T03:25:26.311Z,0
2016-11-26T03:26:06.848Z,0
2016-11-26T03:26:47.382Z,0
2016-11-26T03:27:27.911Z,0
2016-11-26T03:28:08.457Z,0
2016-11-26T03:28:48.998Z,0
2016-11-26T03:29:29.534Z,0
2016-11-26T03:30:10.071Z,0
2016-11-26T03:30:50.605Z,0
2016-11-26T03:31:31.143Z,0
2016-11-26T03:32:11.695Z,0
2016-11-26T03:32:52.237Z,0
2016-11-26T03:33:32.776Z,0
2016-11-26T03:34:13.313Z,0
2016-11-26T03:34:53.856Z,0
2016-11-26T03:35:34.403Z,0
2016-11-26T03:36:14.935Z,0
2016-11-26T03:36:55.482Z,0
2016-11-26T03:37:36.017Z,0
2016-11-26T03:38:16.559Z,0
2016-11-26T03:38:57.100Z,0
2016-11-26T03:39:37.638Z,0
2016-11-26T03:40:18.178Z,0
2016-11-26T03:40:58.708Z,0
2016-11-26T03:41:39.254Z,0
2016-11-26T03:42:19.777Z,0
2016-11-26T03:43:00.317Z,0
2016-11-26T03:43:40.855Z,0
2016-11-26T03:44:21.391Z,0
2016-11-26T03:45:01.936Z,0
2016-11-26T03:45:42.472Z,0
2016-11-26T03:46:23.016Z,0
2016-11-26T03:47:03.552Z,0
2016-11-26T03:47:44.090Z,0
2016-11-26T03:48:24.623Z,0
2016-11-26T03:49:05.163Z,0
2016-11-26T03:49:45.701Z,0
2016-11-26T03:50:26.239Z,0
2016-11-26T03:51:06.767Z,0
2016-11-26T03:51:47.304Z,0
2016-11-26T03:52:27.846Z,0
2016-11-26T03:53:08.379Z,0
2016-11-26T03:53:48.915Z,0
2016-11-26T03:54:29.453Z,0
2016-11-26T03:55:09.987Z,0
2016-11-26T03:55:50.526Z,0
2016-11-26T03:56:31.065Z,0
2016-11-26T03:57:11.600Z,0
2016-11-26T03:57:52.131Z,0
2016-11-26T03:58:32.672Z,0
2016-11-26T03:59:13.232Z,0
2016-11-26T03:59:53.768Z,0
2016-11-26T04:00:34.309Z,0
2016-11-26T04:01:14.841Z,0
2016-11-26T04:01:55.386Z,0
2016-11-26T04:02:35.925Z,0
2016-11-26T04:03:16.465Z,0
2016-11-26T04:03:57.003Z,0
2016-11-26T04:04:37.548Z,0
2016-11-26T04:05:18.074Z,0
2016-11-26T04:05:58.613Z,0
2016-11-26T04:06:39.153Z,0
2016-11-26T04:07:19.689Z,0
2016-11-26T04:08:00.221Z,0
2016-11-26T04:08:40.742Z,0
2016-11-26T04:09:21.276Z,0
2016-11-26T04:10:01.815Z,0
2016-11-26T04:10:42.357Z,0
2016-11-26T04:11:22.910Z,0
2016-11-26T04:12:03.447Z,0
2016-11-26T04:12:43.994Z,0
2016-11-26T04:13:24.527Z,0
2016-11-26T04:14:05.059Z,0
2016-11-26T04:14:45.595Z,0
2016-11-26T04:15:26.131Z,0
2016-11-26T04:16:06.668Z,0
2016-11-26T04:16:47.213Z,0
2016-11-26T04:17:27.748Z,0
2016-11-26T04:18:08.309Z,0
2016-11-26T04:18:48.848Z,0
2016-11-26T04:19:29.388Z,0
2016-11-26T04:20:09.985Z,0
2016-11-26T04:20:50.519Z,0
2016-11-26T04:21:31.053Z,0
2016-11-26T04:22:11.586Z,0
2016-11-26T04:22:52.135Z,0
2016-11-26T04:23:32.676Z,0
2016-11-26T04:24:13.213Z,0
2016-11-26T04:24:53.750Z,0
2016-11-26T04:25:34.284Z,0
2016-11-26T04:26:14.822Z,0
2016-11-26T04:26:55.358Z,0
2016-11-26T04:27:35.900Z,0
2016-11-26T04:28:16.437Z,0
2016-11-26T04:28:56.975Z,0
2016-11-26T04:29:37.510Z,0
2016-11-26T04:30:18.038Z,0
2016-11-26T04:30:58.573Z,0
2016-11-26T04:31:39.111Z,0
2016-11-26T04:32:19.651Z,0
2016-11-26T04:33:00.189Z,0
2016-11-26T04:33:40.726Z,0
2016-11-26T04:34:21.260Z,0
2016-11-26T04:35:01.800Z,0
2016-11-26T04:35:42.337Z,0
2016-11-26T04:36:22.879Z,0
2016-11-26T04:37:03.415Z,0
2016-11-26T04:37:43.946Z,0
2016-11-26T04:38:24.485Z,0
2016-11-26T04:39:05.018Z,0
2016-11-26T04:39:45.555Z,0
2016-11-26T04:40:26.093Z,0
2016-11-26T04:41:06.632Z,0
2016-11-26T04:41:47.170Z,0
2016-11-26T04:42:27.714Z,0
2016-11-26T04:43:08.264Z,0
2016-11-26T04:43:48.801Z,0
2016-11-26T04:44:29.341Z,0
2016-11-26T04:45:09.881Z,0
2016-11-26T04:45:50.417Z,0
2016-11-26T04:46:30.959Z,0
2016-11-26T04:47:11.502Z,0
2016-11-26T04:47:52.048Z,0
2016-11-26T04:48:32.590Z,0
2016-11-26T04:49:13.127Z,0
2016-11-26T04:49:53.669Z,0
2016-11-26T04:50:34.206Z,0
2016-11-26T04:51:14.751Z,0
2016-11-26T04:51:55.281Z,0
2016-11-26T04:52:35.816Z,0
2016-11-26T04:53:16.356Z,0
2016-11-26T04:53:56.893Z,0
2016-11-26T04:54:37.433Z,0
2016-11-26T04:55:17.979Z,0
2016-11-26T04:55:58.520Z,0
2016-11-26T04:56:39.061Z,0
2016-11-26T04:57:19.601Z,0
2016-11-26T04:58:00.143Z,0
2016-11-26T04:58:40.677Z,0
2016-11-26T04:59:21.214Z,0
2016-11-26T05:00:01.755Z,0
2016-11-26T05:00:42.290Z,0
2016-11-26T05:01:22.834Z,0
2016-11-26T05:02:03.378Z,0
2016-11-26T05:02:43.917Z,0
2016-11-26T05:03:24.447Z,0
2016-11-26T05:04:05.002Z,0
2016-11-26T05:04:45.538Z,0
2016-11-26T05:05:26.087Z,0
2016-11-26T05:06:06.630Z,0
2016-11-26T05:06:47.185Z,0
2016-11-26T05:07:27.731Z,0
2016-11-26T05:08:08.271Z,0
2016-11-26T05:08:48.811Z,0
2016-11-26T05:09:29.348Z,0
2016-11-26T05:10:09.893Z,0
2016-11-26T05:10:50.439Z,0
2016-11-26T05:11:30.978Z,0
2016-11-26T05:12:11.516Z,0
2016-11-26T05:12:52.057Z,0
2016-11-26T05:13:32.593Z,0
2016-11-26T05:14:13.128Z,0
2016-11-26T05:14:53.667Z,0
2016-11-26T05:15:34.203Z,0
2016-11-26T05:16:14.745Z,0
2016-11-26T05:16:55.283Z,0
2016-11-26T05:17:35.822Z,0
2016-11-26T05:18:16.364Z,0
2016-11-26T05:18:56.899Z,0
2016-11-26T05:19:37.441Z,0
2016-11-26T05:20:17.976Z,0
2016-11-26T05:20:58.519Z,0
2016-11-26T05:21:39.078Z,0
2016-11-26T05:22:19.621Z,0
2016-11-26T05:23:00.156Z,0
2016-11-26T05:23:40.703Z,0
2016-11-26T05:24:21.245Z,0
2016-11-26T05:25:01.788Z,0
2016-11-26T05:25:42.323Z,0
2016-11-26T05:26:22.860Z,0
2016-11-26T05:27:03.392Z,0
2016-11-26T05:27:43.934Z,0
2016-11-26T05:28:24.476Z,0
2016-11-26T05:29:05.047Z,0
2016-11-26T05:29:45.588Z,0
2016-11-26T05:30:26.129Z,0
2016-11-26T05:31:06.667Z,0
2016-11-26T05:31:47.209Z,0
2016-11-26T05:32:27.747Z,0
2016-11-26T05:33:08.291Z,0
2016-11-26T05:33:48.826Z,0
2016-11-26T05:34:29.368Z,0
2016-11-26T05:35:09.906Z,0
2016-11-26T05:35:50.450Z,0
2016-11-26T05:36:30.990Z,0
2016-11-26T05:37:11.523Z,0
2016-11-26T05:37:52.067Z,0
2016-11-26T05:38:32.602Z,0
2016-11-26T05:39:13.136Z,0
2016-11-26T05:39:53.674Z,0
2016-11-26T05:40:34.211Z,0
2016-11-26T05:41:14.784Z,0
2016-11-26T05:41:55.321Z,0
2016-11-26T05:42:35.856Z,0
2016-11-26T05:43:16.390Z,0
2016-11-26T05:43:56.929Z,0
2016-11-26T05:44:37.474Z,0
2016-11-26T05:45:18.033Z,0
2016-11-26T05:45:58.580Z,0
2016-11-26T05:46:39.124Z,0
2016-11-26T05:47:19.661Z,0
2016-11-26T05:48:00.250Z,0
2016-11-26T05:48:40.787Z,0
2016-11-26T05:49:21.325Z,0
2016-11-26T05:50:01.870Z,0
2016-11-26T05:50:42.397Z,0
2016-11-26T05:51:22.932Z,0
2016-11-26T05:52:03.466Z,0
2016-11-26T05:52:44.004Z,0
2016-11-26T05:53:24.539Z,0
2016-11-26T05:54:05.070Z,0
2016-11-26T05:54:45.617Z,0
2016-11-26T05:55:26.162Z,0
2016-11-26T05:56:06.699Z,0
2016-11-26T05:56:47.236Z,0
2016-11-26T05:57:27.779Z,0
2016-11-26T05:58:08.318Z,0
2016-11-26T05:58:48.856Z,0
2016-11-26T05:59:29.404Z,0
2016-11-26T06:00:09.942Z,0
2016-11-26T06:00:50.479Z,0
2016-11-26T06:01:31.024Z,0
2016-11-26T06:02:11.558Z,0
2016-11-26T06:02:52.091Z,0
2016-11-26T06:03:32.633Z,0
2016-11-26T06:04:13.174Z,0
2016-11-26T06:04:53.703Z,0
2016-11-26T06:05:34.249Z,0
2016-11-26T06:06:14.792Z,0
2016-11-26T06:06:55.328Z,0
2016-11-26T06:07:35.867Z,0
2016-11-26T06:08:16.399Z,0
2016-11-26T06:08:56.939Z,0
2016-11-26T06:09:37.474Z,0
2016-11-26T06:10:18.004Z,0
2016-11-26T06:10:58.546Z,0
2016-11-26T06:11:39.083Z,0
2016-11-26T06:12:19.624Z,0
2016-11-26T06:13:00.160Z,0
2016-11-26T06:13:40.701Z,0
2016-11-26T06:14:21.233Z,0
2016-11-26T06:15:01.771Z,0
2016-11-26T06:15:42.313Z,0
2016-11-26T06:16:22.848Z,0
2016-11-26T06:17:03.416Z,0
2016-11-26T06:17:43.925Z,0
2016-11-26T06:18:24.460Z,0
2016-11-26T06:19:04.999Z,0
2016-11-26T06:19:45.538Z,0
2016-11-26T06:20:26.078Z,0
2016-11-26T06:21:06.612Z,0
2016-11-26T06:21:47.155Z,0
2016-11-26T06:22:27.693Z,0
2016-11-26T06:23:08.233Z,0
2016-11-26T06:23:48.765Z,0
2016-11-26T06:24:29.302Z,0
2016-11-26T06:25:09.840Z,0
2016-11-26T06:25:50.370Z,0
2016-11-26T06:26:30.916Z,0
2016-11-26T06:27:11.463Z,0
2016-11-26T06:27:52.015Z,0
2016-11-26T06:28:32.634Z,0
2016-11-26T06:29:13.170Z,0
2016-11-26T06:29:53.764Z,0
2016-11-26T06:30:34.303Z,0
2016-11-26T06:31:14.843Z,0
2016-11-26T06:31:55.447Z,0
2016-11-26T06:32:35.989Z,0
2016-11-26T06:33:16.525Z,0
2016-11-26T06:33:57.061Z,0
2016-11-26T06:34:37.610Z,0
2016-11-26T06:35:18.169Z,0
2016-11-26T06:35:58.747Z,0
2016-11-26T06:36:39.282Z,0
2016-11-26T06:37:19.912Z,0
2016-11-26T06:38:00.441Z,0
2016-11-26T06:38:40.983Z,0
2016-11-26T06:39:21.590Z,0
2016-11-26T06:40:02.126Z,0
2016-11-26T06:40:42.679Z,0
2016-11-26T06:41:23.219Z,0
2016-11-26T06:42:03.767Z,0
2016-11-26T06:42:44.298Z,0
2016-11-26T06:43:24.839Z,0
2016-11-26T06:44:05.377Z,0
2016-11-26T06:44:45.970Z,0
2016-11-26T06:45:26.514Z,0
2016-11-26T06:46:07.054Z,0
2016-11-26T06:46:47.592Z,0
2016-11-26T06:47:28.129Z,0
2016-11-26T06:48:08.670Z,0
2016-11-26T06:48:49.265Z,0
2016-11-26T06:49:29.807Z,0
2016-11-26T06:50:10.334Z,0
2016-11-26T06:50:50.905Z,0
2016-11-26T06:51:31.447Z,0
2016-11-26T06:52:12.029Z,0
2016-11-26T06:52:52.563Z,0
2016-11-26T06:53:33.132Z,0
2016-11-26T06:54:13.665Z,0
2016-11-26T06:54:54.188Z,0
2016-11-26T06:55:34.819Z,0
2016-11-26T06:56:15.357Z,0
2016-11-26T06:56:55.897Z,0
2016-11-26T06:57:36.438Z,0
2016-11-26T06:58:16.978Z,0
2016-11-26T06:58:57.512Z,0
2016-11-26T06:59:38.047Z,0
2016-11-26T07:00:18.585Z,0
2016-11-26T07:00:59.145Z,0
2016-11-26T07:01:39.709Z,0
2016-11-26T07:02:20.252Z,0
2016-11-26T07:03:00.788Z,0
2016-11-26T07:03:41.328Z,0
2016-11-26T07:04:21.865Z,0
2016-11-26T07:05:02.472Z,0
2016-11-26T07:05:43.001Z,0
2016-11-26T07:06:23.541Z,0
2016-11-26T07:07:04.130Z,0
2016-11-26T07:07:44.667Z,0
2016-11-26T07:08:25.217Z,0
2016-11-26T07:09:05.755Z,0
2016-11-26T07:09:46.297Z,0
2016-11-26T07:10:26.836Z,0
2016-11-26T07:11:07.373Z,0
2016-11-26T07:11:47.912Z,0
2016-11-26T07:12:28.451Z,0
2016-11-26T07:13:08.982Z,0
2016-11-26T07:13:49.523Z,0
2016-11-26T07:14:30.148Z,0
2016-11-26T07:15:10.672Z,0
2016-11-26T07:15:51.208Z,0
2016-11-26T07:16:31.747Z,5
2016-11-26T07:17:12.278Z,5
2016-11-26T07:17:52.977Z,5
2016-11-26T07:18:33.522Z,5
2016-11-26T07:19:14.062Z,5
2016-11-26T07:19:54.591Z,5
2016-11-26T07:20:35.133Z,5
2016-11-26T07:21:15.704Z,5
2016-11-26T07:21:56.301Z,5
2016-11-26T07:22:36.885Z,5
2016-11-26T07:23:17.425Z,5
2016-11-26T07:23:57.963Z,5
2016-11-26T07:24:38.545Z,5
2016-11-26T07:25:19.087Z,5
2016-11-26T07:25:59.623Z,5
2016-11-26T07:26:40.164Z,5
2016-11-26T07:27:20.777Z,5
2016-11-26T07:28:01.329Z,5
2016-11-26T07:28:41.868Z,5
2016-11-26T07:29:22.406Z,5
2016-11-26T07:30:02.943Z,5
2016-11-26T07:30:43.483Z,5
2016-11-26T07:31:24.070Z,5
2016-11-26T07:32:04.608Z,5
2016-11-26T07:32:45.147Z,5
2016-11-26T07:33:25.682Z,10
2016-11-26T07:34:06.256Z,10
2016-11-26T07:34:46.796Z,10
2016-11-26T07:35:27.343Z,10
2016-11-26T07:36:07.882Z,10
2016-11-26T07:36:48.434Z,10
2016-11-26T07:37:28.953Z,10
2016-11-26T07:38:09.499Z,10
2016-11-26T07:38:50.037Z,10
2016-11-26T07:39:30.575Z,10
2016-11-26T07:40:11.102Z,10
2016-11-26T07:40:51.645Z,10
2016-11-26T07:41:32.185Z,10
2016-11-26T07:42:12.715Z,10
2016-11-26T07:42:53.264Z,10
2016-11-26T07:43:33.800Z,10
2016-11-26T07:44:14.334Z,10
2016-11-26T07:44:54.866Z,10
2016-11-26T07:45:35.405Z,10
2016-11-26T07:46:15.949Z,10
2016-11-26T07:46:56.489Z,10
2016-11-26T07:47:37.031Z,10
2016-11-26T07:48:17.585Z,15
2016-11-26T07:48:58.120Z,15
2016-11-26T07:49:38.667Z,15
2016-11-26T07:50:19.208Z,15
2016-11-26T07:50:59.747Z,15
2016-11-26T07:51:40.280Z,15
2016-11-26T07:52:20.813Z,15
2016-11-26T07:53:01.348Z,15
2016-11-26T07:53:41.885Z,15
2016-11-26T07:54:22.422Z,15
2016-11-26T07:55:02.968Z,15
2016-11-26T07:55:43.508Z,20
2016-11-26T07:56:24.052Z,20
2016-11-26T07:57:04.591Z,20
2016-11-26T07:57:45.126Z,20
2016-11-26T07:58:25.666Z,20
2016-11-26T07:59:06.205Z,20
2016-11-26T07:59:46.745Z,20
2016-11-26T08:00:27.286Z,20
2016-11-26T08:01:07.829Z,20
2016-11-26T08:01:48.369Z,20
2016-11-26T08:02:28.909Z,20
2016-11-26T08:03:09.462Z,20
2016-11-26T08:03:49.996Z,20
2016-11-26T08:04:30.561Z,20
2016-11-26T08:05:11.088Z,20
2016-11-26T08:05:51.627Z,20
2016-11-26T08:06:32.169Z,20
2016-11-26T08:07:12.708Z,20
2016-11-26T08:07:53.247Z,20
2016-11-26T08:08:33.786Z,20
2016-11-26T08:09:14.327Z,20
2016-11-26T08:09:54.870Z,20
2016-11-26T08:10:35.395Z,20
2016-11-26T08:11:15.931Z,20
2016-11-26T08:11:56.471Z,20
2016-11-26T08:12:37.011Z,20
2016-11-26T08:13:17.553Z,20
2016-11-26T08:13:58.090Z,20
2016-11-26T08:14:38.632Z,20
2016-11-26T08:15:19.160Z,20
2016-11-26T08:15:59.693Z,20
2016-11-26T08:16:40.234Z,20
2016-11-26T08:17:20.778Z,20
2016-11-26T08:18:01.333Z,20
2016-11-26T08:18:41.864Z,25
2016-11-26T08:19:22.419Z,25
2016-11-26T08:20:02.963Z,25
2016-11-26T08:20:43.510Z,25
2016-11-26T08:21:24.063Z,25
2016-11-26T08:24:18.859Z,30
2016-11-26T08:24:59.394Z,30
2016-11-26T08:25:39.932Z,35
2016-11-26T08:26:20.476Z,35
2016-11-26T08:27:01.013Z,35
2016-11-26T08:27:41.548Z,35
2016-11-26T08:28:22.087Z,35
2016-11-26T08:29:02.626Z,35
2016-11-26T08:29:43.164Z,35
2016-11-26T08:30:23.696Z,35
2016-11-26T08:31:04.231Z,35
2016-11-26T08:31:44.753Z,40
2016-11-26T08:32:25.342Z,40
2016-11-26T08:33:05.869Z,40
2016-11-26T08:33:46.403Z,40
2016-11-26T08:34:26.929Z,45
2016-11-26T08:35:07.462Z,45
2016-11-26T08:35:47.990Z,40
2016-11-26T08:36:28.534Z,40
2016-11-26T08:37:09.086Z,45
2016-11-26T08:37:49.615Z,45
2016-11-26T08:38:30.154Z,45
2016-11-26T08:39:10.696Z,50
2016-11-26T08:39:51.235Z,50
2016-11-26T08:40:31.778Z,45
2016-11-26T08:41:12.322Z,45
2016-11-26T08:41:52.862Z,40
2016-11-26T08:42:33.404Z,45
2016-11-26T08:43:13.944Z,45
2016-11-26T08:43:54.485Z,45
2016-11-26T08:44:35.022Z,45
2016-11-26T08:45:15.561Z,50
2016-11-26T08:45:56.108Z,50
2016-11-26T08:46:36.642Z,50
2016-11-26T08:47:17.174Z,50
2016-11-26T08:47:57.701Z,50
2016-11-26T08:48:38.245Z,50
2016-11-26T08:49:18.781Z,50
2016-11-26T08:49:59.328Z,50
2016-11-26T08:50:39.870Z,50
2016-11-26T08:51:20.403Z,50
2016-11-26T08:52:00.938Z,50
2016-11-26T08:52:41.477Z,50
2016-11-26T08:53:22.022Z,50
2016-11-26T08:54:02.563Z,55
2016-11-26T08:54:43.100Z,55
2016-11-26T08:55:23.643Z,55
2016-11-26T08:56:04.181Z,55
2016-11-26T08:56:44.712Z,55
2016-11-26T08:57:25.261Z,55
2016-11-26T08:58:05.818Z,55
2016-11-26T08:58:46.360Z,55
2016-11-26T08:59:26.902Z,55
2016-11-26T09:00:07.431Z,55
2016-11-26T09:00:47.968Z,55
2016-11-26T09:01:28.506Z,55
2016-11-26T09:02:09.050Z,55
2016-11-26T09:02:49.579Z,55
2016-11-26T09:03:30.117Z,55
2016-11-26T09:04:10.680Z,55
2016-11-26T09:04:51.207Z,55
2016-11-26T09:05:31.749Z,55
2016-11-26T09:06:12.294Z,55
2016-11-26T09:06:52.831Z,55
2016-11-26T09:07:33.377Z,55
2016-11-26T09:08:13.920Z,55
2016-11-26T09:08:54.467Z,55
2016-11-26T09:09:35.022Z,55
2016-11-26T09:10:15.584Z,55
2016-11-26T09:10:56.099Z,55
2016-11-26T09:11:36.638Z,60
2016-11-26T09:12:17.208Z,60
2016-11-26T09:12:57.747Z,60
2016-11-26T09:13:38.286Z,60
2016-11-26T09:14:18.814Z,60
2016-11-26T09:14:59.355Z,65
2016-11-26T09:15:39.891Z,65
2016-11-26T09:16:20.441Z,70
2016-11-26T09:17:00.963Z,70
2016-11-26T09:17:41.507Z,75
2016-11-26T09:18:22.027Z,75
2016-11-26T09:19:02.566Z,75
2016-11-26T09:19:43.103Z,75
2016-11-26T09:20:23.646Z,75
2016-11-26T09:21:04.186Z,75
2016-11-26T09:21:44.726Z,75
2016-11-26T09:22:25.254Z,75
2016-11-26T09:23:05.791Z,75
2016-11-26T09:23:46.346Z,75
2016-11-26T09:24:26.888Z,70
2016-11-26T09:25:07.433Z,70
2016-11-26T09:25:47.975Z,70
2016-11-26T09:26:28.510Z,65
2016-11-26T09:27:09.075Z,65
2016-11-26T09:27:49.795Z,70
2016-11-26T09:28:30.762Z,70
2016-11-26T09:29:11.408Z,70
2016-11-26T09:29:51.927Z,70
2016-11-26T09:30:32.454Z,70
2016-11-26T09:31:12.997Z,70
2016-11-26T09:31:53.532Z,75
2016-11-26T09:32:34.070Z,75
2016-11-26T09:33:14.614Z,75
2016-11-26T09:33:55.152Z,75
2016-11-26T09:34:35.691Z,70
2016-11-26T09:35:16.216Z,70
2016-11-26T09:35:56.768Z,70
2016-11-26T09:36:37.302Z,70
2016-11-26T09:37:17.831Z,70
2016-11-26T09:37:58.374Z,70
2016-11-26T09:38:38.907Z,65
2016-11-26T09:39:19.453Z,70
2016-11-26T09:39:59.984Z,70
2016-11-26T09:40:40.518Z,70
2016-11-26T09:41:21.069Z,70
2016-11-26T09:42:01.619Z,70
2016-11-26T09:42:42.164Z,70
2016-11-26T09:43:22.703Z,70
2016-11-26T09:44:03.245Z,70
2016-11-26T09:44:43.781Z,70
2016-11-26T09:45:24.327Z,75
2016-11-26T09:46:04.860Z,75
2016-11-26T09:46:45.405Z,75
2016-11-26T09:47:25.941Z,75
2016-11-26T09:48:06.471Z,75
2016-11-26T09:48:47.014Z,80
2016-11-26T09:49:27.552Z,80
2016-11-26T09:50:08.079Z,80
2016-11-26T09:50:48.627Z,80
2016-11-26T09:51:29.171Z,80
2016-11-26T09:52:09.709Z,80
2016-11-26T09:52:50.249Z,85
2016-11-26T09:53:30.797Z,85
2016-11-26T09:54:11.331Z,85
2016-11-26T09:54:51.868Z,90
2016-11-26T09:55:32.407Z,90
2016-11-26T09:56:12.943Z,90
2016-11-26T09:56:53.487Z,90
2016-11-26T09:57:34.027Z,90
2016-11-26T09:58:14.558Z,90
2016-11-26T09:58:55.087Z,90
2016-11-26T09:59:35.634Z,90
2016-11-26T10:00:16.167Z,90
2016-11-26T10:00:56.740Z,90
2016-11-26T10:01:37.281Z,90
2016-11-26T10:02:17.824Z,95
2016-11-26T10:02:58.357Z,95
2016-11-26T10:03:38.898Z,95
2016-11-26T10:04:19.441Z,100
2016-11-26T10:04:59.982Z,105
2016-11-26T10:05:40.521Z,105
2016-11-26T10:06:21.045Z,110
2016-11-26T10:07:01.584Z,110
2016-11-26T10:07:42.109Z,110
2016-11-26T10:08:22.667Z,115
2016-11-26T10:09:03.204Z,115
2016-11-26T10:09:43.747Z,110
2016-11-26T10:10:24.282Z,110
2016-11-26T10:11:04.814Z,105
2016-11-26T10:11:45.345Z,105
2016-11-26T10:12:25.883Z,105
2016-11-26T10:13:06.422Z,105
2016-11-26T10:13:46.959Z,105
2016-11-26T10:14:27.509Z,105
2016-11-26T10:15:08.057Z,105
2016-11-26T10:15:48.599Z,100
2016-11-26T10:16:29.136Z,100
2016-11-26T10:17:09.676Z,100
2016-11-26T10:17:50.220Z,100
2016-11-26T10:18:30.758Z,100
2016-11-26T10:19:11.296Z,105
2016-11-26T10:19:51.831Z,105
2016-11-26T10:20:32.447Z,105
2016-11-26T10:21:12.995Z,110
2016-11-26T10:21:53.532Z,110
2016-11-26T10:22:34.068Z,110
2016-11-26T10:23:14.597Z,110
2016-11-26T10:23:55.125Z,110
2016-11-26T10:24:35.666Z,110
2016-11-26T10:25:16.219Z,110
2016-11-26T10:25:56.764Z,110
2016-11-26T10:26:37.313Z,110
2016-11-26T10:27:17.854Z,115
2016-11-26T10:27:58.390Z,115
2016-11-26T10:28:38.929Z,115
2016-11-26T10:29:19.474Z,115
2016-11-26T10:30:00.008Z,115
2016-11-26T10:30:40.536Z,115
2016-11-26T10:31:21.077Z,115
2016-11-26T10:32:01.609Z,115
2016-11-26T10:32:42.162Z,110
2016-11-26T10:33:22.689Z,110
2016-11-26T10:34:03.233Z,110
2016-11-26T10:34:43.769Z,105
2016-11-26T10:35:24.308Z,105
2016-11-26T10:36:04.864Z,105
2016-11-26T10:36:45.398Z,105
2016-11-26T10:37:25.945Z,105
2016-11-26T10:38:06.486Z,110
2016-11-26T10:38:47.029Z,110
2016-11-26T10:39:27.604Z,110
2016-11-26T10:40:08.153Z,110
2016-11-26T10:40:48.703Z,110
2016-11-26T10:41:29.242Z,110
2016-11-26T10:42:09.790Z,110
2016-11-26T10:42:50.319Z,110
2016-11-26T10:43:30.867Z,110
2016-11-26T10:44:11.395Z,110
2016-11-26T10:44:51.934Z,110
2016-11-26T10:45:32.474Z,105
2016-11-26T10:46:13.015Z,105
2016-11-26T10:46:53.561Z,105
2016-11-26T10:47:34.119Z,105
2016-11-26T10:48:14.668Z,110
2016-11-26T10:48:55.203Z,110
2016-11-26T10:49:35.766Z,110